Time;durP1;ratioP1;P1;durP2;ratioP2;P2;SDS_P1;SDS_P2;PMS_P1;PMS_P2;Temp;Humidity;BMP_temperature;BMP_pressure;BME280_temperature;BME280_humidity;BME280_pressure;Samples;Min_cycle;Max_cycle;Signal;HPM_P1;HPM_P2
2022/06/06 00:02:02;;;;;;;;;;;13.00;99.90;;;;;;5110867;28;19911;-79
2022/06/06 00:04:28;;;;;;;;;;;13.00;99.90;;;;;;5110385;28;19907;-78
2022/06/06 00:06:54;;;;;;;;;;;12.90;99.90;;;;;;5110923;28;20280;-79
2022/06/06 00:09:20;;;;;;;;;;;12.90;99.90;;;;;;5113584;28;19904;-80
2022/06/06 00:11:45;;;;;;;;;;;12.90;99.90;;;;;;5113390;28;19908;-80
2022/06/06 00:14:12;;;;;;;;;;;12.80;99.90;;;;;;5113733;28;19904;-80
2022/06/06 00:16:38;;;;;;;;;;;12.80;99.90;;;;;;5113758;28;19912;-77
2022/06/06 00:19:04;;;;;;;;;;;12.70;99.90;;;;;;5113315;28;19916;-78
2022/06/06 00:21:30;;;;;;;;;;;12.70;99.90;;;;;;5113287;28;19931;-74
2022/06/06 00:23:59;;;;;;;;;;;12.70;99.90;;;;;;5113869;28;19987;-78
2022/06/06 00:26:25;;;;;;;;;;;12.70;99.90;;;;;;5113180;28;19994;-78
2022/06/06 00:28:51;;;;;;;;;;;12.70;99.90;;;;;;5114040;28;19956;-79
2022/06/06 00:36:45;;;;;;;;;;;12.70;99.90;;;;;;5113191;28;19950;-77
2022/06/06 00:39:16;;;;;;;;;;;12.70;99.90;;;;;;5113416;28;19959;-79
2022/06/06 00:41:46;;;;;;;;;;;12.70;99.90;;;;;;5112588;28;19952;-79
2022/06/06 00:44:13;;;;;;;;;;;12.70;99.90;;;;;;5112122;28;19915;-79
2022/06/06 00:46:50;;;;;;;;;;;12.70;99.90;;;;;;5112251;28;20051;-80
2022/06/06 00:49:22;;;;;;;;;;;12.80;99.90;;;;;;5094357;28;19903;-78
2022/06/06 00:51:48;;;;;;;;;;;12.80;99.90;;;;;;5112657;28;19904;-78
2022/06/06 00:54:14;;;;;;;;;;;12.80;99.90;;;;;;5112630;28;19957;-78
2022/06/06 00:56:42;;;;;;;;;;;12.90;99.90;;;;;;5112175;28;20319;-79
2022/06/06 00:59:12;;;;;;;;;;;12.90;99.90;;;;;;5112444;28;19918;-78
2022/06/06 01:01:39;;;;;;;;;;;12.90;99.90;;;;;;5111562;28;19915;-80
2022/06/06 01:04:05;;;;;;;;;;;12.90;99.90;;;;;;5109563;28;19912;-79
2022/06/06 01:06:32;;;;;;;;;;;12.90;99.90;;;;;;5109278;28;19914;-79
2022/06/06 01:09:00;;;;;;;;;;;12.90;99.90;;;;;;5112682;28;19948;-80
2022/06/06 01:11:26;;;;;;;;;;;12.90;99.90;;;;;;5112046;28;20676;-78
2022/06/06 01:13:54;;;;;;;;;;;12.90;99.90;;;;;;5112259;28;20415;-78
2022/06/06 01:16:33;;;;;;;;;;;12.90;99.90;;;;;;5111998;28;19904;-79
2022/06/06 01:19:17;;;;;;;;;;;12.80;99.90;;;;;;5111836;28;19916;-80
2022/06/06 01:21:55;;;;;;;;;;;12.80;99.90;;;;;;5111700;28;20384;-78
2022/06/06 01:24:36;;;;;;;;;;;12.80;99.90;;;;;;5111984;28;20285;-77
2022/06/06 01:27:19;;;;;;;;;;;12.80;99.90;;;;;;5111745;28;19911;-77
2022/06/06 01:29:48;;;;;;;;;;;12.70;99.90;;;;;;5111650;28;19904;-78
2022/06/06 01:32:15;;;;;;;;;;;12.70;99.90;;;;;;5111636;28;19926;-77
2022/06/06 01:34:42;;;;;;;;;;;12.80;99.90;;;;;;5111755;28;19908;-79
2022/06/06 01:37:23;;;;;;;;;;;12.80;99.90;;;;;;5112538;28;19995;-79
2022/06/06 01:39:48;;;;;;;;;;;12.90;99.90;;;;;;5111140;28;20288;-79
2022/06/06 01:42:17;;;;;;;;;;;12.90;99.90;;;;;;5111610;28;20376;-79
2022/06/06 01:44:48;;;;;;;;;;;12.90;99.90;;;;;;5111773;28;19907;-79
2022/06/06 01:47:20;;;;;;;;;;;12.90;99.90;;;;;;5110624;28;19904;-80
2022/06/06 01:49:46;;;;;;;;;;;13.00;99.90;;;;;;5092369;28;19904;-80
2022/06/06 01:52:13;;;;;;;;;;;13.00;99.90;;;;;;5087749;28;19908;-79
2022/06/06 01:54:40;;;;;;;;;;;12.90;99.90;;;;;;5087599;28;19957;-79
2022/06/06 01:57:07;;;;;;;;;;;12.90;99.90;;;;;;5087622;28;19915;-78
2022/06/06 01:59:33;;;;;;;;;;;12.80;99.90;;;;;;5087543;28;19908;-79
2022/06/06 02:01:58;;;;;;;;;;;12.80;99.90;;;;;;5087797;28;19904;-80
2022/06/06 02:04:24;;;;;;;;;;;12.80;99.90;;;;;;5090995;28;19947;-79
2022/06/06 02:06:50;;;;;;;;;;;12.80;99.90;;;;;;5111209;28;20343;-79
2022/06/06 02:09:16;;;;;;;;;;;12.80;99.90;;;;;;5111506;28;19908;-78
2022/06/06 02:11:41;;;;;;;;;;;12.80;99.90;;;;;;5110902;28;20253;-79
2022/06/06 02:14:08;;;;;;;;;;;12.80;99.90;;;;;;5111541;28;20360;-77
2022/06/06 02:16:33;;;;;;;;;;;12.80;99.90;;;;;;5111130;28;20015;-79
2022/06/06 02:18:59;;;;;;;;;;;12.80;99.90;;;;;;5144085;27;19924;-78
2022/06/06 02:21:24;;;;;;;;;;;12.80;99.90;;;;;;5111067;28;19957;-79
2022/06/06 02:23:50;;;;;;;;;;;12.80;99.90;;;;;;5110012;28;20339;-78
2022/06/06 02:26:16;;;;;;;;;;;12.90;99.90;;;;;;5107862;28;20402;-79
2022/06/06 02:28:42;;;;;;;;;;;12.90;99.90;;;;;;5108205;28;19931;-79
2022/06/06 02:31:07;;;;;;;;;;;13.00;99.90;;;;;;5108021;28;19907;-78
2022/06/06 02:33:33;;;;;;;;;;;12.90;99.90;;;;;;5108596;28;19915;-77
2022/06/06 02:36:00;;;;;;;;;;;12.90;99.90;;;;;;5110650;28;19904;-77
2022/06/06 02:38:27;;;;;;;;;;;12.80;99.90;;;;;;5110733;28;19968;-76
2022/06/06 02:40:52;;;;;;;;;;;12.90;99.90;;;;;;5110917;28;19918;-77
2022/06/06 02:43:21;;;;;;;;;;;13.00;99.90;;;;;;5110624;28;19908;-77
2022/06/06 02:45:50;;;;;;;;;;;13.10;99.90;;;;;;5110532;28;20004;-77
2022/06/06 02:48:16;;;;;;;;;;;13.00;99.90;;;;;;5110764;28;19914;-77
2022/06/06 02:50:42;;;;;;;;;;;13.10;99.90;;;;;;5110429;28;19942;-77
2022/06/06 02:53:08;;;;;;;;;;;13.20;99.90;;;;;;5110707;28;19990;-77
2022/06/06 02:55:34;;;;;;;;;;;13.10;99.90;;;;;;5110567;28;20601;-77
2022/06/06 02:58:01;;;;;;;;;;;13.10;99.90;;;;;;5111030;28;19904;-76
2022/06/06 03:00:27;;;;;;;;;;;13.10;99.90;;;;;;5110884;28;20325;-78
2022/06/06 03:02:53;;;;;;;;;;;13.10;99.90;;;;;;5110963;28;20323;-77
2022/06/06 03:05:19;;;;;;;;;;;13.20;99.90;;;;;;5111851;28;19908;-77
2022/06/06 03:08:05;;;;;;;;;;;13.30;99.90;;;;;;5111064;28;19955;-77
2022/06/06 03:10:47;;;;;;;;;;;13.30;99.90;;;;;;5114091;28;20363;-78
2022/06/06 03:13:31;;;;;;;;;;;13.30;99.90;;;;;;5114733;28;19912;-77
2022/06/06 03:22:31;;;;;;;;;;;13.40;99.90;;;;;;5099563;28;19957;-78
2022/06/06 03:25:12;;;;;;;;;;;13.50;99.90;;;;;;5090138;28;20322;-77
2022/06/06 03:27:48;;;;;;;;;;;13.50;99.90;;;;;;5113994;28;19903;-78
2022/06/06 03:30:40;;;;;;;;;;;13.50;99.90;;;;;;5114072;28;20394;-78
2022/06/06 03:33:11;;;;;;;;;;;13.60;99.90;;;;;;5111781;28;20360;-79
2022/06/06 03:35:55;;;;;;;;;;;13.60;99.90;;;;;;5113954;28;19911;-80
2022/06/06 03:38:27;;;;;;;;;;;13.70;99.90;;;;;;5113816;28;19919;-79
2022/06/06 03:40:55;;;;;;;;;;;13.70;99.90;;;;;;5113673;28;19944;-80
2022/06/06 03:43:40;;;;;;;;;;;13.70;99.90;;;;;;5113909;28;19910;-79
2022/06/06 03:46:21;;;;;;;;;;;13.70;99.90;;;;;;5114132;28;20027;-79
2022/06/06 03:48:49;;;;;;;;;;;13.80;99.90;;;;;;5113714;28;19908;-79
2022/06/06 03:51:16;;;;;;;;;;;13.80;99.90;;;;;;5113745;28;19907;-80
2022/06/06 03:53:48;;;;;;;;;;;13.80;99.90;;;;;;5113667;28;20264;-79
2022/06/06 03:56:21;;;;;;;;;;;13.70;99.90;;;;;;5114024;28;20053;-79
2022/06/06 03:58:48;;;;;;;;;;;13.80;99.90;;;;;;5113608;28;19911;-79
2022/06/06 04:01:14;;;;;;;;;;;13.70;99.90;;;;;;5113361;28;19912;-79
2022/06/06 04:03:42;;;;;;;;;;;13.70;99.90;;;;;;5113448;28;20295;-79
2022/06/06 04:06:07;;;;;;;;;;;13.70;99.90;;;;;;5113190;28;19904;-79
2022/06/06 04:08:33;;;;;;;;;;;13.70;99.90;;;;;;5113432;28;19914;-79
2022/06/06 04:11:05;;;;;;;;;;;13.70;99.90;;;;;;5113332;28;19908;-79
2022/06/06 04:13:30;;;;;;;;;;;13.70;99.90;;;;;;5113120;28;19949;-79
2022/06/06 04:15:56;;;;;;;;;;;13.80;99.90;;;;;;5111751;28;19911;-79
2022/06/06 04:18:41;;;;;;;;;;;13.80;99.90;;;;;;5110242;28;20292;-79
2022/06/06 04:21:24;;;;;;;;;;;13.80;99.90;;;;;;5110848;28;20364;-79
2022/06/06 04:23:50;;;;;;;;;;;13.80;99.90;;;;;;5112782;28;19907;-79
2022/06/06 04:26:20;;;;;;;;;;;13.70;99.90;;;;;;5112587;28;19990;-79
2022/06/06 04:28:54;;;;;;;;;;;13.80;99.90;;;;;;5113105;28;19900;-79
2022/06/06 04:31:20;;;;;;;;;;;13.80;99.90;;;;;;5111260;28;19912;-80
2022/06/06 04:34:12;;;;;;;;;;;13.80;99.90;;;;;;5110038;28;19914;-79
2022/06/06 04:36:42;;;;;;;;;;;13.80;99.90;;;;;;5084108;28;20393;-80
2022/06/06 04:39:14;;;;;;;;;;;13.70;99.90;;;;;;5112257;28;20509;-79
2022/06/06 04:41:58;;;;;;;;;;;13.80;99.90;;;;;;5112554;28;19935;-79
2022/06/06 04:44:39;;;;;;;;;;;13.80;99.90;;;;;;5112511;28;19904;-75
2022/06/06 04:47:10;;;;;;;;;;;13.70;99.90;;;;;;5112165;28;19918;-79
2022/06/06 04:49:36;;;;;;;;;;;13.70;99.90;;;;;;5112424;28;19995;-79
2022/06/06 04:52:02;;;;;;;;;;;13.70;99.90;;;;;;5112158;28;19995;-80
2022/06/06 04:54:29;;;;;;;;;;;13.70;99.90;;;;;;5112415;28;19908;-79
2022/06/06 04:56:55;;;;;;;;;;;13.80;99.90;;;;;;5112171;28;19908;-79
2022/06/06 04:59:22;;;;;;;;;;;13.80;99.90;;;;;;5112103;28;19990;-79
2022/06/06 05:01:48;;;;;;;;;;;13.80;99.90;;;;;;5109831;28;19940;-79
2022/06/06 05:04:14;;;;;;;;;;;13.80;99.90;;;;;;5108886;28;19907;-80
2022/06/06 05:06:52;;;;;;;;;;;13.80;99.90;;;;;;5108321;28;20031;-79
2022/06/06 05:09:36;;;;;;;;;;;13.90;99.90;;;;;;5108770;28;20288;-79
2022/06/06 05:12:16;;;;;;;;;;;13.90;99.90;;;;;;5110552;28;19903;-79
2022/06/06 05:15:00;;;;;;;;;;;13.90;99.90;;;;;;5112402;28;19904;-81
2022/06/06 05:17:34;;;;;;;;;;;14.00;99.90;;;;;;5112235;28;19904;-78
2022/06/06 05:20:08;;;;;;;;;;;14.00;99.90;;;;;;5111948;28;19916;-78
2022/06/06 05:22:34;;;;;;;;;;;14.00;99.90;;;;;;5109629;28;19911;-79
2022/06/06 05:24:59;;;;;;;;;;;14.00;99.90;;;;;;5109245;28;19903;-78
2022/06/06 05:27:37;;;;;;;;;;;14.00;99.90;;;;;;5111662;28;20002;-79
2022/06/06 05:30:06;;;;;;;;;;;14.10;99.90;;;;;;5112079;28;20002;-77
2022/06/06 05:32:53;;;;;;;;;;;14.10;99.90;;;;;;5111532;28;19922;-78
2022/06/06 05:35:24;;;;;;;;;;;14.10;99.90;;;;;;5111825;28;19956;-78
2022/06/06 05:37:55;;;;;;;;;;;14.10;99.90;;;;;;5108587;28;20269;-78
2022/06/06 05:40:26;;;;;;;;;;;14.20;99.90;;;;;;5106916;28;19966;-78
2022/06/06 05:43:05;;;;;;;;;;;14.20;99.90;;;;;;5111486;28;19903;-78
2022/06/06 05:45:57;;;;;;;;;;;14.20;99.90;;;;;;5111069;28;19955;-78
2022/06/06 05:48:29;;;;;;;;;;;14.30;99.90;;;;;;5105599;28;19916;-79
2022/06/06 05:51:03;;;;;;;;;;;14.30;99.90;;;;;;5108317;28;19908;-79
2022/06/06 05:53:41;;;;;;;;;;;14.40;99.90;;;;;;5108207;28;19915;-78
2022/06/06 05:56:22;;;;;;;;;;;14.50;99.90;;;;;;5109279;28;20036;-78
2022/06/06 05:58:47;;;;;;;;;;;14.60;99.90;;;;;;5111485;28;19903;-79
2022/06/06 06:01:28;;;;;;;;;;;14.70;99.90;;;;;;5111937;28;19918;-79
2022/06/06 06:04:00;;;;;;;;;;;14.80;99.90;;;;;;5111495;28;19907;-78
2022/06/06 06:06:33;;;;;;;;;;;14.90;99.90;;;;;;5108889;28;20009;-79
2022/06/06 06:09:01;;;;;;;;;;;15.00;99.90;;;;;;5108034;28;19942;-78
2022/06/06 06:11:45;;;;;;;;;;;15.10;99.90;;;;;;5108623;28;19908;-79
2022/06/06 06:14:20;;;;;;;;;;;15.20;99.90;;;;;;5108440;28;19948;-79
2022/06/06 06:16:49;;;;;;;;;;;15.30;99.90;;;;;;5109259;28;19903;-79
2022/06/06 06:19:17;;;;;;;;;;;15.30;99.90;;;;;;5111257;28;20383;-79
2022/06/06 06:21:47;;;;;;;;;;;15.40;99.90;;;;;;5111080;28;19911;-79
2022/06/06 06:24:16;;;;;;;;;;;15.40;99.90;;;;;;5109120;28;20033;-79
2022/06/06 06:26:42;;;;;;;;;;;15.40;99.90;;;;;;5108580;28;20403;-79
2022/06/06 06:29:09;;;;;;;;;;;15.30;99.90;;;;;;5108574;28;20280;-78
2022/06/06 06:31:53;;;;;;;;;;;15.30;99.90;;;;;;5111062;28;20275;-79
2022/06/06 06:34:21;;;;;;;;;;;15.30;99.90;;;;;;5111502;28;19910;-79
2022/06/06 06:36:49;;;;;;;;;;;15.30;99.90;;;;;;5111014;28;20344;-78
2022/06/06 06:39:18;;;;;;;;;;;15.30;99.90;;;;;;5110740;28;19920;-75
2022/06/06 06:42:02;;;;;;;;;;;15.30;99.90;;;;;;5110798;28;19908;-79
2022/06/06 06:44:31;;;;;;;;;;;15.30;99.90;;;;;;5114323;28;20014;-78
2022/06/06 06:46:57;;;;;;;;;;;15.40;99.90;;;;;;5115135;28;20276;-79
2022/06/06 06:49:43;;;;;;;;;;;15.70;99.90;;;;;;5115202;28;20049;-78
2022/06/06 06:52:32;;;;;;;;;;;15.90;99.90;;;;;;5115067;28;19908;-78
2022/06/06 06:55:04;;;;;;;;;;;16.10;99.90;;;;;;5103759;28;20292;-79
2022/06/06 06:57:35;;;;;;;;;;;16.30;99.90;;;;;;5114889;28;20279;-78
2022/06/06 07:00:13;;;;;;;;;;;16.20;99.90;;;;;;5114797;28;20035;-78
2022/06/06 07:08:42;;;;;;;;;;;16.70;99.90;;;;;;5113125;28;20006;-76
2022/06/06 07:11:26;;;;;;;;;;;16.70;99.90;;;;;;5113932;28;20324;-77
2022/06/06 07:14:10;;;;;;;;;;;16.80;99.90;;;;;;5114698;28;19904;-78
2022/06/06 07:16:37;;;;;;;;;;;16.80;99.90;;;;;;5114634;28;19907;-76
2022/06/06 07:19:14;;;;;;;;;;;17.00;99.90;;;;;;5114261;28;20305;-75
2022/06/06 07:21:41;;;;;;;;;;;17.00;99.90;;;;;;5114428;28;19942;-77
2022/06/06 07:24:11;;;;;;;;;;;16.80;99.90;;;;;;5114697;28;20392;-78
2022/06/06 07:26:41;;;;;;;;;;;16.70;99.90;;;;;;5114097;28;19903;-77
2022/06/06 07:29:08;;;;;;;;;;;16.90;99.90;;;;;;5114114;28;19908;-77
2022/06/06 07:31:36;;;;;;;;;;;17.10;99.90;;;;;;5114150;28;19911;-77
2022/06/06 07:34:21;;;;;;;;;;;17.40;99.90;;;;;;5114202;28;19910;-78
2022/06/06 07:37:05;;;;;;;;;;;17.60;99.90;;;;;;5113642;28;19903;-77
2022/06/06 07:39:34;;;;;;;;;;;17.60;99.90;;;;;;5113959;28;19916;-77
2022/06/06 07:42:00;;;;;;;;;;;17.40;99.90;;;;;;5114008;28;19907;-76
2022/06/06 07:44:31;;;;;;;;;;;17.10;99.90;;;;;;5114044;28;19915;-76
2022/06/06 07:47:18;;;;;;;;;;;16.90;99.90;;;;;;5113682;28;20012;-75
2022/06/06 07:49:43;;;;;;;;;;;17.20;99.90;;;;;;5113847;28;20399;-76
2022/06/06 07:52:27;;;;;;;;;;;17.80;99.90;;;;;;5113533;28;19904;-77
2022/06/06 07:55:01;;;;;;;;;;;18.50;99.90;;;;;;5113171;28;19907;-77
2022/06/06 07:57:45;;;;;;;;;;;18.50;99.90;;;;;;5113567;28;19907;-76
2022/06/06 08:00:13;;;;;;;;;;;18.20;99.90;;;;;;5113991;28;19916;-76
2022/06/06 08:02:42;;;;;;;;;;;18.50;99.90;;;;;;5113635;28;19915;-77
2022/06/06 08:05:20;;;;;;;;;;;18.60;99.90;;;;;;5113277;28;19903;-76
2022/06/06 08:08:04;;;;;;;;;;;18.60;99.90;;;;;;5113269;28;19916;-74
2022/06/06 08:10:43;;;;;;;;;;;18.40;99.90;;;;;;5113129;28;19903;-73
2022/06/06 08:13:17;;;;;;;;;;;18.30;99.90;;;;;;5113327;28;19930;-74
2022/06/06 08:15:43;;;;;;;;;;;18.20;99.90;;;;;;5112144;28;19912;-73
2022/06/06 08:18:11;;;;;;;;;;;18.20;99.90;;;;;;5109863;28;19952;-72
2022/06/06 08:20:45;;;;;;;;;;;18.20;99.90;;;;;;5109924;28;19962;-72
2022/06/06 08:23:13;;;;;;;;;;;18.20;99.90;;;;;;5111701;28;19914;-72
2022/06/06 08:25:40;;;;;;;;;;;18.30;99.90;;;;;;5109830;28;19908;-73
2022/06/06 08:28:06;;;;;;;;;;;18.40;99.90;;;;;;5110124;28;19908;-73
2022/06/06 08:30:32;;;;;;;;;;;18.70;99.90;;;;;;5110353;28;20359;-76
2022/06/06 08:32:58;;;;;;;;;;;18.70;99.90;;;;;;5110867;28;19915;-77
2022/06/06 08:35:27;;;;;;;;;;;18.70;99.90;;;;;;5111502;28;20371;-73
2022/06/06 08:38:08;;;;;;;;;;;18.70;99.90;;;;;;5112276;28;19954;-73
2022/06/06 08:40:33;;;;;;;;;;;18.60;99.90;;;;;;5094472;28;20435;-74
2022/06/06 08:43:03;;;;;;;;;;;18.30;99.90;;;;;;5112602;28;19925;-75
2022/06/06 08:45:47;;;;;;;;;;;18.20;99.90;;;;;;5112597;28;19903;-73
2022/06/06 08:48:13;;;;;;;;;;;18.20;99.90;;;;;;5112617;28;19939;-74
2022/06/06 08:50:45;;;;;;;;;;;18.30;99.90;;;;;;5111433;28;19946;-74
2022/06/06 08:53:10;;;;;;;;;;;18.50;99.90;;;;;;5109463;28;19908;-74
2022/06/06 08:55:41;;;;;;;;;;;18.50;99.90;;;;;;5109710;28;19911;-74
2022/06/06 08:58:19;;;;;;;;;;;18.30;99.90;;;;;;5111257;28;19953;-74
2022/06/06 09:00:50;;;;;;;;;;;18.30;99.90;;;;;;5109248;28;20024;-75
2022/06/06 09:03:18;;;;;;;;;;;18.30;99.90;;;;;;5109866;28;20075;-75
2022/06/06 09:06:19;;;;;;;;;;;18.70;99.90;;;;;;5101208;28;19915;-73
2022/06/06 09:09:04;;;;;;;;;;;19.00;99.90;;;;;;5066764;28;19908;-73
2022/06/06 09:11:40;;;;;;;;;;;19.30;99.90;;;;;;5105527;28;19908;-73
2022/06/06 09:14:18;;;;;;;;;;;19.40;99.90;;;;;;5109137;28;19908;-73
2022/06/06 09:16:50;;;;;;;;;;;19.60;99.90;;;;;;5108501;28;19942;-73
2022/06/06 09:19:24;;;;;;;;;;;19.50;99.90;;;;;;5111448;28;20364;-72
2022/06/06 09:21:50;;;;;;;;;;;19.70;99.90;;;;;;5111624;28;19961;-72
2022/06/06 09:24:34;;;;;;;;;;;19.60;99.90;;;;;;5106142;28;19904;-72
2022/06/06 09:27:18;;;;;;;;;;;19.50;99.90;;;;;;5089010;28;19908;-74
2022/06/06 09:29:56;;;;;;;;;;;19.30;99.90;;;;;;5094884;28;20496;-69
2022/06/06 09:32:36;;;;;;;;;;;19.10;99.90;;;;;;5090526;28;19908;-70
2022/06/06 09:35:08;;;;;;;;;;;18.50;99.90;;;;;;5097461;28;20307;-73
2022/06/06 09:37:37;;;;;;;;;;;17.90;99.90;;;;;;5112278;28;19907;-74
2022/06/06 09:40:21;;;;;;;;;;;17.60;99.90;;;;;;5111620;28;20342;-72
2022/06/06 09:42:50;;;;;;;;;;;17.30;99.90;;;;;;5111414;28;19908;-71
2022/06/06 09:45:34;;;;;;;;;;;16.90;99.90;;;;;;5111395;28;19908;-72
2022/06/06 09:48:22;;;;;;;;;;;16.70;99.90;;;;;;5108201;28;19907;-73
2022/06/06 09:51:05;;;;;;;;;;;16.50;99.90;;;;;;5108801;28;19907;-71
2022/06/06 09:59:01;;;;;;;;;;;16.50;99.90;;;;;;5111333;28;19903;-69
2022/06/06 09:59:38;;;;;;;;;;;16.60;99.90;;;;;;5111114;28;20027;-70
2022/06/06 10:02:15;;;;;;;;;;;17.20;99.90;;;;;;5110078;28;19943;-69
2022/06/06 10:04:47;;;;;;;;;;;17.60;99.90;;;;;;5108163;28;20295;-71
2022/06/06 10:07:18;;;;;;;;;;;17.70;99.90;;;;;;5108027;28;19947;-72
2022/06/06 10:09:43;;;;;;;;;;;17.70;99.90;;;;;;5108119;28;19910;-71
2022/06/06 10:12:24;;;;;;;;;;;17.30;99.90;;;;;;5108014;28;19907;-69
2022/06/06 10:15:01;;;;;;;;;;;17.00;99.90;;;;;;5106682;28;19911;-69
2022/06/06 10:17:33;;;;;;;;;;;16.70;99.90;;;;;;5107687;28;19907;-67
2022/06/06 10:20:09;;;;;;;;;;;16.60;99.90;;;;;;5107482;28;19916;-68
2022/06/06 10:22:35;;;;;;;;;;;16.50;99.90;;;;;;5107775;28;19942;-67
2022/06/06 10:25:19;;;;;;;;;;;16.50;99.90;;;;;;5107668;28;19950;-70
2022/06/06 10:27:45;;;;;;;;;;;16.60;99.90;;;;;;5107756;28;19979;-69
2022/06/06 10:30:20;;;;;;;;;;;16.60;99.90;;;;;;5107498;28;19903;-69
2022/06/06 10:32:56;;;;;;;;;;;16.70;99.90;;;;;;5087436;28;19911;-68
2022/06/06 10:35:29;;;;;;;;;;;16.60;99.90;;;;;;5097022;28;19953;-68
2022/06/06 10:38:13;;;;;;;;;;;16.60;99.90;;;;;;5107643;28;20288;-68
2022/06/06 10:40:57;;;;;;;;;;;16.60;99.90;;;;;;5099435;28;19916;-72
2022/06/06 10:43:29;;;;;;;;;;;16.50;99.90;;;;;;5107309;28;19915;-68
2022/06/06 10:45:57;;;;;;;;;;;16.50;99.90;;;;;;5106570;28;19919;-70
2022/06/06 10:48:26;;;;;;;;;;;16.50;99.90;;;;;;5107469;28;20325;-72
2022/06/06 10:54:00;;;;;;;;;;;16.50;99.90;;;;;;5107822;28;19986;-68
2022/06/06 10:56:48;;;;;;;;;;;16.70;99.90;;;;;;5107678;28;19914;-67
2022/06/06 10:59:30;;;;;;;;;;;16.80;99.90;;;;;;5106108;28;19983;-68
2022/06/06 11:02:06;;;;;;;;;;;16.80;99.90;;;;;;5107367;28;19998;-67
2022/06/06 11:04:41;;;;;;;;;;;16.80;99.90;;;;;;5107867;28;19952;-69
2022/06/06 11:07:09;;;;;;;;;;;17.00;99.90;;;;;;5107737;28;19916;-67
2022/06/06 11:09:40;;;;;;;;;;;17.00;99.90;;;;;;5107951;28;19947;-67
2022/06/06 11:12:06;;;;;;;;;;;17.30;99.90;;;;;;5107624;28;19912;-67
2022/06/06 11:14:36;;;;;;;;;;;17.40;99.90;;;;;;5107821;28;19904;-68
2022/06/06 11:17:07;;;;;;;;;;;17.60;99.90;;;;;;5108253;28;19904;-69
2022/06/06 11:19:45;;;;;;;;;;;17.60;99.90;;;;;;5108082;28;19947;-69
2022/06/06 11:22:10;;;;;;;;;;;17.70;99.90;;;;;;5107185;28;20348;-66
2022/06/06 11:24:45;;;;;;;;;;;17.70;99.90;;;;;;5107917;28;19908;-66
2022/06/06 11:27:29;;;;;;;;;;;18.00;99.90;;;;;;5107944;28;19904;-67
2022/06/06 11:30:12;;;;;;;;;;;18.10;99.90;;;;;;5109632;28;20380;-67
2022/06/06 11:32:56;;;;;;;;;;;18.20;99.90;;;;;;5111400;28;19904;-68
2022/06/06 11:35:28;;;;;;;;;;;18.30;99.90;;;;;;5110502;28;20368;-68
2022/06/06 11:38:11;;;;;;;;;;;18.40;99.90;;;;;;5110939;28;19903;-68
2022/06/06 11:40:55;;;;;;;;;;;18.60;99.90;;;;;;5110869;28;19924;-68
2022/06/06 11:43:24;;;;;;;;;;;18.80;99.90;;;;;;5110919;28;19904;-68
2022/06/06 11:45:49;;;;;;;;;;;19.00;99.90;;;;;;5110630;28;19911;-66
2022/06/06 11:48:50;;;;;;;;;;;18.80;99.90;;;;;;5110588;28;19904;-67
2022/06/06 11:51:16;;;;;;;;;;;18.30;99.90;;;;;;5047029;28;19909;-67
2022/06/06 11:53:47;;;;;;;;;;;17.90;99.90;;;;;;5097055;28;19910;-68
2022/06/06 11:56:12;;;;;;;;;;;17.60;99.90;;;;;;5110452;28;19907;-67
2022/06/06 11:58:57;;;;;;;;;;;17.50;99.90;;;;;;5110673;28;19956;-67
2022/06/06 12:01:34;;;;;;;;;;;17.70;99.90;;;;;;5110556;28;19964;-67
2022/06/06 12:04:05;;;;;;;;;;;18.20;99.90;;;;;;5110468;28;19911;-67
2022/06/06 12:06:34;;;;;;;;;;;18.70;99.90;;;;;;5110259;28;19912;-68
2022/06/06 12:09:02;;;;;;;;;;;18.60;99.90;;;;;;5110377;28;19999;-70
2022/06/06 12:11:54;;;;;;;;;;;18.70;99.90;;;;;;5110139;28;19908;-68
2022/06/06 12:14:20;;;;;;;;;;;18.90;99.90;;;;;;5106849;28;19904;-66
2022/06/06 12:16:48;;;;;;;;;;;19.20;99.90;;;;;;5109936;28;20332;-67
2022/06/06 12:19:32;;;;;;;;;;;19.40;99.90;;;;;;5110076;28;19910;-66
2022/06/06 12:21:57;;;;;;;;;;;19.70;99.90;;;;;;5110084;28;19947;-66
2022/06/06 12:24:35;;;;;;;;;;;20.00;99.90;;;;;;5110369;28;20007;-66
2022/06/06 12:27:20;;;;;;;;;;;20.20;99.90;;;;;;5109831;28;20302;-72
2022/06/06 12:30:09;;;;;;;;;;;20.30;99.90;;;;;;5109929;28;19908;-65
2022/06/06 12:32:49;;;;;;;;;;;20.00;99.90;;;;;;5109907;28;19911;-65
2022/06/06 12:35:35;;;;;;;;;;;19.70;99.90;;;;;;5109613;28;19912;-64
2022/06/06 12:38:16;;;;;;;;;;;19.50;99.90;;;;;;5108774;28;20326;-64
2022/06/06 12:41:12;;;;;;;;;;;19.60;99.90;;;;;;5110013;28;19930;-65
2022/06/06 12:43:44;;;;;;;;;;;19.50;99.90;;;;;;5035977;28;20272;-66
2022/06/06 12:46:28;;;;;;;;;;;19.50;99.90;;;;;;5109494;28;19904;-66
2022/06/06 12:48:56;;;;;;;;;;;19.60;99.90;;;;;;5109573;28;19908;-66
2022/06/06 12:51:23;;;;;;;;;;;19.50;99.90;;;;;;5109597;28;19911;-66
2022/06/06 12:54:07;;;;;;;;;;;19.50;99.90;;;;;;5109454;28;19986;-65
2022/06/06 12:56:51;;;;;;;;;;;19.30;99.90;;;;;;5109107;28;19998;-66
2022/06/06 12:59:22;;;;;;;;;;;18.90;99.90;;;;;;5109513;28;19915;-66
2022/06/06 13:01:53;;;;;;;;;;;18.70;99.90;;;;;;5109654;28;19914;-65
2022/06/06 13:04:37;;;;;;;;;;;18.70;99.90;;;;;;5109158;28;19990;-66
2022/06/06 13:07:15;;;;;;;;;;;18.80;99.90;;;;;;5101259;28;19904;-65
2022/06/06 13:09:55;;;;;;;;;;;19.00;99.90;;;;;;5097910;28;19908;-64
2022/06/06 13:12:27;;;;;;;;;;;19.00;99.90;;;;;;5090405;28;19908;-65
2022/06/06 13:14:55;;;;;;;;;;;19.10;99.90;;;;;;5109168;28;20257;-64
2022/06/06 13:17:24;;;;;;;;;;;19.40;99.90;;;;;;5109147;28;20070;-65
2022/06/06 13:20:02;;;;;;;;;;;19.60;99.90;;;;;;5103732;28;19927;-64
2022/06/06 13:22:43;;;;;;;;;;;19.90;99.90;;;;;;5088252;28;20284;-65
2022/06/06 13:25:12;;;;;;;;;;;20.10;99.90;;;;;;5088334;28;19903;-65
2022/06/06 13:27:55;;;;;;;;;;;20.90;99.90;;;;;;5088097;28;19999;-65
2022/06/06 13:30:39;;;;;;;;;;;21.50;99.90;;;;;;5104227;28;19994;-65
2022/06/06 13:33:31;;;;;;;;;;;21.70;99.90;;;;;;5108683;28;19914;-65
2022/06/06 13:36:19;;;;;;;;;;;22.30;99.90;;;;;;5092014;28;19911;-65
2022/06/06 13:39:04;;;;;;;;;;;22.80;99.90;;;;;;5108326;28;20038;-64
2022/06/06 13:41:48;;;;;;;;;;;23.10;98.80;;;;;;5108574;28;19939;-65
2022/06/06 13:44:26;;;;;;;;;;;23.80;98.40;;;;;;5108479;28;19961;-65
2022/06/06 13:47:03;;;;;;;;;;;24.40;96.50;;;;;;5108209;28;19914;-65
2022/06/06 13:49:35;;;;;;;;;;;24.30;96.60;;;;;;5108651;28;19994;-66
2022/06/06 13:52:09;;;;;;;;;;;24.30;95.60;;;;;;5107947;28;19908;-65
2022/06/06 13:54:36;;;;;;;;;;;24.70;94.90;;;;;;5108153;28;19961;-65
2022/06/06 13:57:01;;;;;;;;;;;24.70;93.40;;;;;;5108298;28;19904;-64
2022/06/06 13:59:30;;;;;;;;;;;24.80;94.30;;;;;;5107670;28;19942;-65
2022/06/06 14:02:07;;;;;;;;;;;24.90;94.20;;;;;;5107771;28;20311;-64
2022/06/06 14:04:41;;;;;;;;;;;24.00;94.50;;;;;;5107918;28;20375;-66
2022/06/06 14:07:12;;;;;;;;;;;24.00;97.20;;;;;;5107591;28;19960;-64
2022/06/06 14:09:40;;;;;;;;;;;24.70;96.30;;;;;;5107975;28;19919;-64
2022/06/06 14:12:24;;;;;;;;;;;25.10;94.10;;;;;;5107778;28;20399;-68
2022/06/06 14:14:52;;;;;;;;;;;25.90;93.20;;;;;;5108198;28;20006;-68
2022/06/06 14:17:26;;;;;;;;;;;26.00;91.60;;;;;;5106122;28;20596;-69
2022/06/06 14:19:58;;;;;;;;;;;25.90;92.40;;;;;;5106312;28;20436;-70
2022/06/06 14:22:25;;;;;;;;;;;25.00;90.80;;;;;;5105926;28;19933;-67
2022/06/06 14:24:53;;;;;;;;;;;25.00;92.20;;;;;;5106315;28;19904;-68
2022/06/06 14:27:19;;;;;;;;;;;24.50;93.10;;;;;;5106011;28;19998;-67
2022/06/06 14:29:51;;;;;;;;;;;24.40;93.20;;;;;;5106327;28;20630;-69
2022/06/06 14:32:25;;;;;;;;;;;24.30;94.10;;;;;;5107501;28;19904;-69
2022/06/06 14:34:52;;;;;;;;;;;24.20;94.00;;;;;;5107942;28;19914;-67
2022/06/06 14:37:30;;;;;;;;;;;23.80;94.90;;;;;;5107109;28;19907;-68
2022/06/06 14:39:57;;;;;;;;;;;23.20;95.00;;;;;;5107542;28;19938;-69
2022/06/06 14:42:28;;;;;;;;;;;23.00;96.90;;;;;;5107688;28;19912;-68
2022/06/06 14:44:59;;;;;;;;;;;22.90;96.50;;;;;;5107496;28;19965;-68
2022/06/06 14:47:25;;;;;;;;;;;22.70;98.00;;;;;;5107491;28;19904;-68
2022/06/06 14:52:39;;;;;;;;;;;21.80;98.40;;;;;;5106474;28;19910;-67
2022/06/06 14:55:06;;;;;;;;;;;21.30;99.10;;;;;;5103347;28;20015;-67
2022/06/06 14:57:32;;;;;;;;;;;21.40;99.90;;;;;;5107620;28;19914;-67
2022/06/06 14:59:59;;;;;;;;;;;21.20;99.90;;;;;;5112737;28;20405;-76
2022/06/06 15:02:26;;;;;;;;;;;20.90;99.90;;;;;;5120411;28;19907;-69
2022/06/06 15:05:13;;;;;;;;;;;20.70;99.90;;;;;;5124569;27;19915;-70
2022/06/06 15:07:44;;;;;;;;;;;20.50;99.90;;;;;;5111522;28;19904;-68
2022/06/06 15:10:17;;;;;;;;;;;20.40;99.90;;;;;;5111538;27;19903;-68
2022/06/06 15:12:43;;;;;;;;;;;20.20;99.90;;;;;;5111410;28;19907;-67
2022/06/06 15:15:10;;;;;;;;;;;20.30;99.90;;;;;;5111355;28;19990;-66
2022/06/06 15:17:38;;;;;;;;;;;20.20;99.90;;;;;;5111500;28;19912;-67